createdAt,value
2018-03-15T00:02:29.247Z,2.48
2018-03-15T00:04:57.558Z,2.46
2018-03-15T00:07:25.901Z,2.44
2018-03-15T00:09:54.332Z,2.44
2018-03-15T00:12:22.718Z,2.44
2018-03-15T00:14:51.102Z,2.42
2018-03-15T00:17:22.097Z,2.39
2018-03-15T00:19:50.554Z,2.38
2018-03-15T00:22:19.636Z,2.38
2018-03-15T00:24:49.038Z,2.38
2018-03-15T00:27:17.395Z,2.37
2018-03-15T00:29:45.676Z,2.34
2018-03-15T00:32:14.182Z,2.31
2018-03-15T00:34:42.743Z,2.28
2018-03-15T00:37:11.035Z,2.25
2018-03-15T00:39:39.506Z,2.25
2018-03-15T00:42:08.079Z,2.23
2018-03-15T00:44:36.454Z,2.22
2018-03-15T00:47:05.812Z,2.18
2018-03-15T00:49:34.257Z,2.15
2018-03-15T00:52:02.574Z,2.12
2018-03-15T00:54:31.140Z,2.13
2018-03-15T00:57:01.189Z,2.13
2018-03-15T00:59:29.756Z,2.15
2018-03-15T01:01:58.338Z,2.17
2018-03-15T01:04:28.516Z,2.17
2018-03-15T01:06:56.991Z,2.12
2018-03-15T01:09:26.251Z,2.08
2018-03-15T01:11:54.547Z,2.02
2018-03-15T01:14:25.467Z,1.98
2018-03-15T01:16:53.886Z,1.97
2018-03-15T01:19:23.151Z,1.95
2018-03-15T01:21:51.506Z,1.92
2018-03-15T01:24:20.116Z,1.90
2018-03-15T01:26:50.164Z,1.88
2018-03-15T01:29:18.792Z,1.84
2018-03-15T01:31:47.103Z,1.82
2018-03-15T01:34:17.138Z,1.80
2018-03-15T01:36:46.662Z,1.80
2018-03-15T01:39:15.172Z,1.81
2018-03-15T01:41:45.278Z,1.81
2018-03-15T01:44:13.687Z,1.80
2018-03-15T01:46:42.091Z,1.78
2018-03-15T01:49:10.460Z,1.78
2018-03-15T01:51:38.841Z,1.78
2018-03-15T01:54:08.791Z,1.78
2018-03-15T01:56:37.111Z,1.78
2018-03-15T01:59:05.548Z,1.79
2018-03-15T02:01:33.929Z,1.79
2018-03-15T02:04:04.127Z,1.79
2018-03-15T02:06:32.542Z,1.78
2018-03-15T02:09:01.275Z,1.77
2018-03-15T02:11:31.327Z,1.77
2018-03-15T02:13:59.723Z,1.76
2018-03-15T02:16:29.596Z,1.77
2018-03-15T02:18:58.737Z,1.75
2018-03-15T02:21:27.240Z,1.74
2018-03-15T02:23:57.515Z,1.71
2018-03-15T02:26:26.763Z,1.68
2018-03-15T02:28:55.107Z,1.67
2018-03-15T02:31:23.474Z,1.63
2018-03-15T02:33:54.457Z,1.60
2018-03-15T02:36:22.845Z,1.58
2018-03-15T02:38:51.202Z,1.56
2018-03-15T02:41:19.753Z,1.56
2018-03-15T02:43:48.092Z,1.52
2018-03-15T02:46:16.470Z,1.48
2018-03-15T02:48:46.493Z,1.46
2018-03-15T02:51:14.995Z,1.43
2018-03-15T02:53:43.541Z,1.38
2018-03-15T02:56:13.696Z,1.35
2018-03-15T02:58:42.347Z,1.30
2018-03-15T03:01:10.683Z,1.27
2018-03-15T03:03:39.038Z,1.27
2018-03-15T03:06:07.362Z,1.25
2018-03-15T03:08:35.699Z,1.26
2018-03-15T03:11:04.060Z,1.30
2018-03-15T03:13:34.574Z,1.36
2018-03-15T03:16:03.029Z,1.41
2018-03-15T03:18:31.453Z,1.42
2018-03-15T03:21:00.031Z,1.32
2018-03-15T03:23:28.369Z,1.25
2018-03-15T03:25:56.899Z,1.19
2018-03-15T03:28:25.240Z,1.17
2018-03-15T03:30:55.526Z,1.19
2018-03-15T03:33:25.649Z,1.18
2018-03-15T03:35:54.408Z,1.16
2018-03-15T03:38:22.916Z,1.15
2018-03-15T03:40:52.129Z,1.13
2018-03-15T03:43:20.531Z,1.14
2018-03-15T03:45:49.103Z,1.12
2018-03-15T03:48:19.113Z,1.12
2018-03-15T03:50:49.380Z,1.09
2018-03-15T03:53:18.629Z,1.05
2018-03-15T03:55:46.951Z,1.05
2018-03-15T03:58:15.319Z,1.03
2018-03-15T04:00:44.026Z,1.03
2018-03-15T04:03:13.185Z,1.00
2018-03-15T04:05:41.515Z,0.96
2018-03-15T04:08:09.928Z,0.96
2018-03-15T04:10:40.705Z,0.96
2018-03-15T04:13:10.820Z,0.96
2018-03-15T04:15:39.556Z,0.94
2018-03-15T04:18:08.883Z,0.93
2018-03-15T04:20:37.350Z,0.92
2018-03-15T04:23:07.298Z,0.90
2018-03-15T04:25:35.608Z,0.87
2018-03-15T04:28:04.017Z,0.89
2018-03-15T04:30:32.409Z,0.93
2018-03-15T04:33:01.747Z,0.95
2018-03-15T04:35:30.231Z,1.00
2018-03-15T04:37:58.922Z,1.07
2018-03-15T04:40:29.259Z,1.14
2018-03-15T04:43:00.148Z,1.20
2018-03-15T04:45:28.523Z,1.25
2018-03-15T04:47:56.838Z,1.28
2018-03-15T04:50:25.162Z,1.33
2018-03-15T04:52:53.630Z,1.36
2018-03-15T04:55:22.125Z,1.40
2018-03-15T04:57:50.460Z,1.43
2018-03-15T05:00:19.114Z,1.44
2018-03-15T05:02:47.488Z,1.51
2018-03-15T05:05:15.961Z,1.55
2018-03-15T05:07:45.251Z,1.57
2018-03-15T05:10:17.911Z,1.59
2018-03-15T05:12:48.550Z,1.64
2018-03-15T05:15:19.192Z,1.69
2018-03-15T05:17:47.666Z,1.74
2018-03-15T05:20:17.711Z,1.80
2018-03-15T05:22:46.262Z,1.82
2018-03-15T05:25:16.412Z,1.85
2018-03-15T05:27:44.794Z,1.89
2018-03-15T05:30:13.162Z,1.93
2018-03-15T05:32:44.457Z,1.98
2018-03-15T05:35:13.919Z,2.04
2018-03-15T05:37:42.362Z,2.11
2018-03-15T05:40:10.914Z,2.16
2018-03-15T05:42:39.260Z,2.21
2018-03-15T05:45:08.382Z,2.25
2018-03-15T05:47:38.502Z,2.28
2018-03-15T05:50:08.692Z,2.32
2018-03-15T05:52:39.038Z,2.36
2018-03-15T05:55:08.242Z,2.39
2018-03-15T05:57:36.784Z,2.42
2018-03-15T06:00:05.200Z,2.44
2018-03-15T06:02:33.570Z,2.48
2018-03-15T06:05:03.761Z,2.50
2018-03-15T06:07:32.374Z,2.53
2018-03-15T06:10:02.483Z,2.56
2018-03-15T06:12:33.542Z,2.61
2018-03-15T06:15:01.924Z,2.64
2018-03-15T06:17:30.426Z,2.64
2018-03-15T06:20:00.476Z,2.69
2018-03-15T06:22:29.021Z,2.71
2018-03-15T06:24:57.430Z,2.74
2018-03-15T06:27:26.771Z,2.77
2018-03-15T06:29:58.212Z,2.81
2018-03-15T06:32:26.528Z,2.81
2018-03-15T06:34:57.370Z,2.84
2018-03-15T06:37:25.996Z,2.86
2018-03-15T06:39:55.178Z,2.90
2018-03-15T06:42:23.578Z,2.93
2018-03-15T06:44:51.996Z,2.95
2018-03-15T06:47:20.400Z,3.00
2018-03-15T06:49:48.752Z,3.06
2018-03-15T06:52:17.124Z,3.07
2018-03-15T06:54:45.547Z,3.11
2018-03-15T06:57:13.990Z,3.16
2018-03-15T06:59:43.106Z,3.21
2018-03-15T07:02:11.416Z,3.28
2018-03-15T07:04:41.616Z,3.33
2018-03-15T07:07:10.777Z,3.33
2018-03-15T07:09:39.318Z,3.37
2018-03-15T07:12:08.082Z,3.41
2018-03-15T07:14:36.820Z,3.44
2018-03-15T07:17:05.150Z,3.51
2018-03-15T07:19:35.328Z,3.59
2018-03-15T07:22:05.446Z,3.66
2018-03-15T07:24:34.852Z,3.67
2018-03-15T07:27:03.250Z,3.75
2018-03-15T07:29:32.666Z,3.80
2018-03-15T07:32:01.415Z,3.81
2018-03-15T07:34:30.451Z,3.86
2018-03-15T07:36:58.843Z,3.94
2018-03-15T07:39:28.063Z,3.95
2018-03-15T07:41:56.412Z,4.02
2018-03-15T07:44:24.810Z,4.06
2018-03-15T07:46:53.198Z,4.05
2018-03-15T07:49:21.715Z,4.10
2018-03-15T07:51:50.234Z,4.19
2018-03-15T07:54:20.783Z,4.31
2018-03-15T07:56:52.132Z,4.46
2018-03-15T07:59:20.458Z,4.57
2018-03-15T08:01:48.895Z,4.72
2018-03-15T08:04:17.190Z,4.69
2018-03-15T08:06:45.548Z,4.70
2018-03-15T08:09:14.009Z,4.73
2018-03-15T08:11:42.514Z,4.77
2018-03-15T08:14:10.821Z,4.85
2018-03-15T08:16:40.786Z,4.90
2018-03-15T08:19:11.828Z,5.05
2018-03-15T08:21:40.180Z,5.06
2018-03-15T08:24:08.743Z,5.10
2018-03-15T08:26:37.194Z,5.26
2018-03-15T08:29:05.539Z,5.39
2018-03-15T08:31:34.594Z,5.56
2018-03-15T08:34:03.052Z,5.64
2018-03-15T08:36:33.865Z,5.74
2018-03-15T08:39:02.268Z,5.86
2018-03-15T08:41:30.627Z,5.92
2018-03-15T08:43:59.046Z,6.10
2018-03-15T08:46:27.428Z,6.23
2018-03-15T08:48:55.766Z,6.29
2018-03-15T08:51:24.081Z,6.37
2018-03-15T08:53:52.723Z,6.39
2018-03-15T08:56:21.072Z,6.38
2018-03-15T08:58:49.374Z,6.48
2018-03-15T09:01:19.440Z,6.39
2018-03-15T09:03:49.510Z,6.34
2018-03-15T09:06:17.805Z,6.30
2018-03-15T09:08:46.953Z,6.42
2018-03-15T09:11:15.305Z,6.42
2018-03-15T09:13:43.674Z,6.40
2018-03-15T09:16:14.047Z,6.42
2018-03-15T09:18:43.267Z,6.45
2018-03-15T09:21:12.559Z,6.52
2018-03-15T09:23:42.650Z,6.64
2018-03-15T09:26:11.103Z,6.71
2018-03-15T09:28:39.573Z,6.85
2018-03-15T09:31:07.947Z,6.99
2018-03-15T09:33:39.002Z,6.96
2018-03-15T09:36:07.445Z,7.00
2018-03-15T09:38:35.787Z,6.97
2018-03-15T09:41:04.195Z,7.10
2018-03-15T09:43:32.697Z,7.26
2018-03-15T09:46:01.015Z,7.39
2018-03-15T09:48:29.364Z,7.38
2018-03-15T09:50:57.851Z,7.41
2018-03-15T09:53:26.473Z,7.47
2018-03-15T09:55:54.810Z,7.52
2018-03-15T09:58:23.138Z,7.45
2018-03-15T10:00:51.650Z,7.38
2018-03-15T10:03:20.083Z,7.57
2018-03-15T10:05:49.249Z,7.58
2018-03-15T10:08:17.551Z,7.60
2018-03-15T10:10:45.942Z,7.61
2018-03-15T10:13:16.907Z,7.65
2018-03-15T10:15:45.484Z,7.77
2018-03-15T10:18:14.033Z,7.93
2018-03-15T10:20:42.360Z,8.01
2018-03-15T10:23:10.988Z,7.92
2018-03-15T10:25:39.320Z,7.80
2018-03-15T10:28:08.386Z,7.84
2018-03-15T10:30:36.948Z,7.87
2018-03-15T10:33:10.933Z,8.05
2018-03-15T10:35:40.871Z,8.11
2018-03-15T10:38:09.290Z,8.16
2018-03-15T10:40:39.351Z,8.23
2018-03-15T10:43:07.751Z,8.29
2018-03-15T10:45:36.090Z,8.46
2018-03-15T10:48:04.519Z,8.61
2018-03-15T10:50:32.955Z,8.56
2018-03-15T10:53:01.636Z,8.59
2018-03-15T10:55:30.093Z,8.49
2018-03-15T10:57:58.615Z,8.74
2018-03-15T11:00:32.715Z,8.78
2018-03-15T11:03:08.153Z,8.94
2018-03-15T11:05:42.878Z,8.78
2018-03-15T11:08:16.725Z,8.91
2018-03-15T11:10:45.107Z,8.84
2018-03-15T11:13:13.530Z,8.97
2018-03-15T11:15:43.095Z,8.87
2018-03-15T11:18:11.506Z,8.91
2018-03-15T11:20:42.072Z,9.09
2018-03-15T11:23:12.088Z,9.03
2018-03-15T11:25:40.758Z,9.13
2018-03-15T11:28:09.153Z,9.25
2018-03-15T11:30:40.075Z,9.45
2018-03-15T11:33:08.552Z,9.63
2018-03-15T11:35:36.937Z,9.86
2018-03-15T11:38:05.251Z,9.96
2018-03-15T11:40:33.909Z,9.98
2018-03-15T11:43:02.264Z,10.01
2018-03-15T11:45:30.728Z,9.94
2018-03-15T11:47:59.172Z,9.87
2018-03-15T11:50:27.514Z,9.92
2018-03-15T11:52:57.566Z,10.11
2018-03-15T11:55:25.944Z,10.27
2018-03-15T11:57:54.264Z,10.44
2018-03-15T12:00:24.314Z,10.27
2018-03-15T12:02:52.616Z,10.15
2018-03-15T12:05:21.022Z,10.23
2018-03-15T12:07:49.531Z,10.33
2018-03-15T12:10:19.728Z,10.46
2018-03-15T12:12:49.951Z,10.40
2018-03-15T12:15:19.712Z,10.48
2018-03-15T12:17:48.100Z,10.67
2018-03-15T12:20:16.637Z,10.78
2018-03-15T12:22:45.166Z,10.76
2018-03-15T12:25:13.527Z,10.75
2018-03-15T12:27:41.906Z,10.66
2018-03-15T12:30:10.208Z,10.82
2018-03-15T12:32:38.649Z,10.82
2018-03-15T12:35:06.982Z,10.88
2018-03-15T12:37:35.316Z,10.88
2018-03-15T12:40:03.786Z,10.87
2018-03-15T12:42:32.222Z,11.01
2018-03-15T12:45:00.715Z,11.03
2018-03-15T12:47:29.886Z,11.16
2018-03-15T12:49:59.180Z,11.14
2018-03-15T12:52:27.543Z,11.16
2018-03-15T12:54:55.890Z,11.22
2018-03-15T12:57:24.282Z,11.21
2018-03-15T12:59:52.720Z,11.19
2018-03-15T13:02:21.911Z,11.20
2018-03-15T13:04:51.983Z,11.23
2018-03-15T13:07:20.661Z,11.29
2018-03-15T13:09:49.030Z,11.33
2018-03-15T13:12:17.381Z,11.44
2018-03-15T13:14:45.701Z,11.53
2018-03-15T13:17:15.905Z,11.50
2018-03-15T13:19:44.336Z,11.54
2018-03-15T13:22:12.668Z,11.48
2018-03-15T13:24:40.978Z,11.46
2018-03-15T13:27:09.306Z,11.51
2018-03-15T13:29:37.607Z,11.60
2018-03-15T13:32:06.061Z,11.51
2018-03-15T13:34:34.397Z,11.54
2018-03-15T13:37:02.750Z,11.45
2018-03-15T13:39:33.693Z,11.45
2018-03-15T13:42:02.112Z,11.46
2018-03-15T13:44:30.452Z,11.48
2018-03-15T13:46:58.766Z,11.57
2018-03-15T13:49:27.045Z,11.62
2018-03-15T13:51:55.444Z,11.74
2018-03-15T13:54:26.038Z,11.76
2018-03-15T13:56:56.802Z,11.83
2018-03-15T13:59:25.166Z,11.80
2018-03-15T14:01:53.453Z,11.65
2018-03-15T14:04:21.820Z,11.58
2018-03-15T14:06:50.317Z,11.51
2018-03-15T14:09:18.633Z,11.46
2018-03-15T14:11:47.679Z,11.37
2018-03-15T14:14:16.085Z,11.44
2018-03-15T14:16:44.392Z,11.40
2018-03-15T14:19:12.880Z,11.30
2018-03-15T14:21:42.898Z,11.14
2018-03-15T14:24:11.273Z,11.13
2018-03-15T14:26:39.546Z,11.10
2018-03-15T14:29:08.128Z,11.05
2018-03-15T14:31:36.467Z,11.05
2018-03-15T14:34:04.841Z,11.04
2018-03-15T14:36:33.158Z,11.06
2018-03-15T14:39:01.535Z,11.14
2018-03-15T14:41:29.886Z,11.06
2018-03-15T14:43:58.232Z,11.07
2018-03-15T14:46:26.587Z,11.11
2018-03-15T14:48:56.638Z,11.15
2018-03-15T14:51:25.203Z,11.07
2018-03-15T14:53:53.529Z,10.98
2018-03-15T14:56:22.068Z,11.02
2018-03-15T14:58:50.403Z,10.96
2018-03-15T15:01:18.816Z,10.92
2018-03-15T15:03:49.439Z,10.89
2018-03-15T15:06:18.301Z,10.83
2018-03-15T15:08:46.848Z,10.83
2018-03-15T15:11:16.321Z,10.86
2018-03-15T15:13:44.696Z,10.83
2018-03-15T15:16:13.025Z,10.82
2018-03-15T15:18:43.178Z,10.79
2018-03-15T15:21:11.662Z,10.72
2018-03-15T15:23:41.751Z,10.74
2018-03-15T15:26:10.052Z,10.72
2018-03-15T15:28:38.542Z,10.71
2018-03-15T15:31:09.529Z,10.65
2018-03-15T15:33:37.921Z,10.57
2018-03-15T15:36:06.346Z,10.50
2018-03-15T15:38:34.669Z,10.47
2018-03-15T15:41:03.434Z,10.49
2018-03-15T15:43:31.801Z,10.46
2018-03-15T15:46:00.097Z,10.44
2018-03-15T15:48:28.431Z,10.39
2018-03-15T15:50:57.898Z,10.37
2018-03-15T15:53:27.113Z,10.31
2018-03-15T15:55:56.599Z,10.32
2018-03-15T15:58:26.711Z,10.28
2018-03-15T16:00:56.891Z,10.29
2018-03-15T16:03:26.152Z,10.22
2018-03-15T16:05:54.459Z,10.18
2018-03-15T16:08:25.699Z,10.16
2018-03-15T16:10:56.751Z,10.14
2018-03-15T16:13:25.229Z,10.13
2018-03-15T16:15:53.878Z,10.10
2018-03-15T16:18:22.207Z,10.06
2018-03-15T16:20:50.610Z,10.06
2018-03-15T16:23:19.931Z,10.02
2018-03-15T16:25:48.277Z,10.03
2018-03-15T16:28:16.718Z,9.98
2018-03-15T16:30:45.189Z,9.94
2018-03-15T16:33:13.553Z,9.93
2018-03-15T16:35:41.965Z,9.88
2018-03-15T16:38:10.319Z,9.85
2018-03-15T16:40:38.623Z,9.83
2018-03-15T16:43:07.071Z,9.78
2018-03-15T16:45:37.033Z,9.70
2018-03-15T16:48:05.525Z,9.65
2018-03-15T16:50:34.713Z,9.62
2018-03-15T16:53:03.866Z,9.57
2018-03-15T16:55:32.292Z,9.52
2018-03-15T16:58:00.704Z,9.46
2018-03-15T17:00:30.743Z,9.40
2018-03-15T17:03:00.029Z,9.38
2018-03-15T17:05:28.603Z,9.33
2018-03-15T17:07:57.032Z,9.28
2018-03-15T17:10:25.298Z,9.25
2018-03-15T17:12:56.868Z,9.21
2018-03-15T17:15:27.811Z,9.19
2018-03-15T17:17:56.265Z,9.13
2018-03-15T17:20:24.710Z,9.13
2018-03-15T17:22:57.937Z,9.09
2018-03-15T17:25:30.050Z,9.06
2018-03-15T17:27:58.566Z,9.05
2018-03-15T17:30:27.965Z,9.03
2018-03-15T17:32:58.197Z,9.02
2018-03-15T17:35:26.791Z,8.98
2018-03-15T17:37:55.292Z,8.95
2018-03-15T17:40:23.692Z,8.94
2018-03-15T17:42:53.787Z,8.94
2018-03-15T17:45:22.167Z,8.94
2018-03-15T17:47:51.296Z,8.92
2018-03-15T17:50:19.727Z,8.89
2018-03-15T17:52:48.386Z,8.84
2018-03-15T17:55:18.646Z,8.86
2018-03-15T17:57:51.166Z,8.82
2018-03-15T18:00:22.203Z,8.80
2018-03-15T18:02:50.569Z,8.82
2018-03-15T18:05:19.042Z,8.78
2018-03-15T18:10:35.408Z,8.75
2018-03-15T18:13:03.810Z,8.72
2018-03-15T18:15:32.257Z,8.70
2018-03-15T18:18:00.584Z,8.68
2018-03-15T18:20:28.967Z,8.67
2018-03-15T18:22:57.502Z,8.66
2018-03-15T18:25:27.403Z,8.64
2018-03-15T18:27:55.796Z,8.62
2018-03-15T18:30:24.887Z,8.61
2018-03-15T18:32:53.406Z,8.58
2018-03-15T18:35:22.025Z,8.56
2018-03-15T18:37:50.415Z,8.56
2018-03-15T18:40:21.561Z,8.54
2018-03-15T18:42:49.998Z,8.52
2018-03-15T18:45:21.079Z,8.49
2018-03-15T18:47:49.489Z,8.45
2018-03-15T18:50:18.698Z,8.42
2018-03-15T18:52:49.511Z,8.40
2018-03-15T18:55:21.956Z,8.37
2018-03-15T18:57:50.389Z,8.36
2018-03-15T19:00:20.829Z,8.32
2018-03-15T19:02:50.106Z,8.33
2018-03-15T19:05:18.724Z,8.31
2018-03-15T19:07:47.341Z,8.29
2018-03-15T19:10:15.662Z,8.28
2018-03-15T19:12:45.869Z,8.25
2018-03-15T19:15:15.206Z,8.25
2018-03-15T19:17:43.628Z,8.24
2018-03-15T19:20:12.192Z,8.21
2018-03-15T19:22:41.369Z,8.21
2018-03-15T19:25:09.937Z,8.21
2018-03-15T19:27:40.189Z,8.16
2018-03-15T19:30:10.462Z,8.15
2018-03-15T19:35:15.543Z,8.14
2018-03-15T19:37:45.854Z,8.10
2018-03-15T19:40:14.380Z,8.09
2018-03-15T19:42:44.712Z,8.09
2018-03-15T19:45:13.086Z,8.08
2018-03-15T19:47:41.647Z,8.07
2018-03-15T19:50:11.704Z,8.06
2018-03-15T19:52:40.472Z,8.05
2018-03-15T19:55:08.779Z,8.05
2018-03-15T19:57:37.152Z,8.02
2018-03-15T20:00:05.519Z,8.01
2018-03-15T20:02:33.896Z,8.00
2018-03-15T20:05:02.241Z,7.98
2018-03-15T20:07:30.664Z,7.96
2018-03-15T20:09:59.310Z,7.93
2018-03-15T20:12:27.662Z,7.92
2018-03-15T20:14:56.022Z,7.92
2018-03-15T20:17:26.104Z,7.91
2018-03-15T20:19:54.496Z,7.88
2018-03-15T20:22:28.336Z,7.87
2018-03-15T20:24:56.795Z,7.87
2018-03-15T20:27:30.710Z,7.83
2018-03-15T20:30:01.133Z,7.82
2018-03-15T20:32:35.040Z,7.82
2018-03-15T20:35:04.547Z,7.80
2018-03-15T20:37:32.992Z,7.80
2018-03-15T20:40:06.966Z,7.80
2018-03-15T20:42:35.330Z,7.79
2018-03-15T20:45:05.513Z,7.77
2018-03-15T20:47:39.564Z,7.75
2018-03-15T20:50:07.861Z,7.72
2018-03-15T20:52:36.334Z,7.71
2018-03-15T20:55:05.781Z,7.66
2018-03-15T20:57:34.128Z,7.67
2018-03-15T21:00:02.443Z,7.68
2018-03-15T21:02:31.511Z,7.66
2018-03-15T21:05:00.773Z,7.65
2018-03-15T21:07:29.179Z,7.66
2018-03-15T21:09:57.535Z,7.63
2018-03-15T21:12:27.579Z,7.61
2018-03-15T21:14:56.795Z,7.62
2018-03-15T21:17:25.154Z,7.62
2018-03-15T21:19:55.826Z,7.60
2018-03-15T21:22:26.768Z,7.59
2018-03-15T21:24:56.208Z,7.60
2018-03-15T21:27:24.623Z,7.60
2018-03-15T21:29:53.046Z,7.59
2018-03-15T21:32:21.398Z,7.60
2018-03-15T21:34:49.782Z,7.60
2018-03-15T21:37:18.912Z,7.59
2018-03-15T21:39:47.488Z,7.58
2018-03-15T21:42:16.014Z,7.59
2018-03-15T21:44:46.104Z,7.59
2018-03-15T21:47:14.637Z,7.58
2018-03-15T21:49:44.704Z,7.57
2018-03-15T21:52:13.195Z,7.57
2018-03-15T21:54:43.106Z,7.57
2018-03-15T21:57:12.190Z,7.57
2018-03-15T21:59:40.565Z,7.56
2018-03-15T22:02:09.078Z,7.55
2018-03-15T22:04:37.474Z,7.53
2018-03-15T22:07:05.787Z,7.53
2018-03-15T22:09:36.290Z,7.52
2018-03-15T22:12:04.587Z,7.52
2018-03-15T22:14:36.311Z,7.52
2018-03-15T22:17:06.571Z,7.53
2018-03-15T22:19:34.928Z,7.53
2018-03-15T22:22:05.263Z,7.52
2018-03-15T22:24:36.050Z,7.52
2018-03-15T22:27:05.816Z,7.51
2018-03-15T22:29:34.166Z,7.50
2018-03-15T22:32:02.635Z,7.48
2018-03-15T22:34:31.637Z,7.49
2018-03-15T22:37:00.111Z,7.47
2018-03-15T22:39:30.220Z,7.46
2018-03-15T22:41:58.602Z,7.43
2018-03-15T22:44:26.898Z,7.38
2018-03-15T22:46:55.191Z,7.36
2018-03-15T22:49:25.207Z,7.36
2018-03-15T22:51:53.597Z,7.35
2018-03-15T22:54:22.055Z,7.35
2018-03-15T22:56:52.233Z,7.34
2018-03-15T22:59:22.465Z,7.32
2018-03-15T23:01:50.854Z,7.31
2018-03-15T23:04:20.993Z,7.30
2018-03-15T23:06:49.467Z,7.28
2018-03-15T23:09:17.821Z,7.25
2018-03-15T23:11:46.125Z,7.24
2018-03-15T23:14:14.428Z,7.24
2018-03-15T23:16:42.778Z,7.23
2018-03-15T23:19:11.071Z,7.23
2018-03-15T23:21:39.544Z,7.23
2018-03-15T23:24:07.887Z,7.24
2018-03-15T23:26:36.443Z,7.24
2018-03-15T23:29:05.505Z,7.24
2018-03-15T23:31:33.994Z,7.24
2018-03-15T23:34:02.440Z,7.23
2018-03-15T23:36:30.848Z,7.23
2018-03-15T23:38:59.218Z,7.20
2018-03-15T23:41:27.537Z,7.19
2018-03-15T23:43:56.062Z,7.19
2018-03-15T23:46:24.371Z,7.19
2018-03-15T23:48:52.693Z,7.18
2018-03-15T23:51:22.769Z,7.17
2018-03-15T23:53:51.071Z,7.15
2018-03-15T23:56:19.371Z,7.15
2018-03-15T23:58:47.661Z,7.14
